Time;durP1;ratioP1;P1;durP2;ratioP2;P2;SDS_P1;SDS_P2;PMS_P1;PMS_P2;Temp;Humidity;BMP_temperature;BMP_pressure;BME280_temperature;BME280_humidity;BME280_pressure;Samples;Min_cycle;Max_cycle;Signal;HPM_P1;HPM_P2
2024/02/12 00:01:34;;;;;;;;;26.00;19.00;;;;;9.15;100.00;98339.98;112890;240;39352;-56
2024/02/12 00:04:19;;;;;;;;;32.00;24.00;;;;;9.15;100.00;98340.16;112920;240;39963;-56
2024/02/12 00:06:56;;;;;;;;;32.50;25.00;;;;;9.13;100.00;98340.20;112728;239;161808;-53
2024/02/12 00:09:31;;;;;;;;;28.00;22.00;;;;;9.12;100.00;98340.50;112901;240;41260;-52
2024/02/12 00:12:09;;;;;;;;;23.75;19.50;;;;;9.14;100.00;98343.03;112759;239;161879;-56
2024/02/12 00:14:53;;;;;;;;;26.25;20.00;;;;;9.15;100.00;98344.14;112869;241;39508;-56
2024/02/12 00:17:34;;;;;;;;;38.00;29.00;;;;;9.14;100.00;98345.35;112744;239;162117;-53
2024/02/12 00:20:12;;;;;;;;;28.75;21.75;;;;;9.15;100.00;98341.45;112834;241;40926;-52
2024/02/12 00:22:53;;;;;;;;;30.00;24.00;;;;;9.15;100.00;98347.21;113098;240;40102;-53
2024/02/12 00:25:30;;;;;;;;;29.00;21.00;;;;;9.15;100.00;98347.96;112816;241;40113;-53
2024/02/12 00:28:08;;;;;;;;;28.00;22.00;;;;;9.17;100.00;98344.23;112859;241;39498;-56
2024/02/12 00:30:47;;;;;;;;;23.00;18.50;;;;;9.13;100.00;98343.65;112675;240;163009;-56
2024/02/12 00:33:28;;;;;;;;;24.50;18.50;;;;;9.14;100.00;98344.21;113112;240;40807;-52
2024/02/12 00:36:06;;;;;;;;;32.00;23.33;;;;;9.14;100.00;98347.94;112827;240;161955;-56
2024/02/12 00:38:49;;;;;;;;;24.33;19.00;;;;;9.10;100.00;98351.80;112980;241;41142;-57
2024/02/12 00:41:29;;;;;;;;;28.75;22.50;;;;;9.11;100.00;98345.54;112896;239;163033;-56
2024/02/12 00:44:07;;;;;;;;;30.00;23.00;;;;;9.14;100.00;98348.84;112908;241;39908;-57
2024/02/12 00:46:45;;;;;;;;;27.25;19.75;;;;;9.15;100.00;98347.05;113153;240;39378;-52
2024/02/12 00:49:26;;;;;;;;;33.00;23.00;;;;;9.13;100.00;98341.61;112852;241;39341;-52
2024/02/12 00:52:07;;;;;;;;;32.00;24.00;;;;;9.14;100.00;98341.34;113063;240;39936;-55
2024/02/12 00:54:46;;;;;;;;;25.33;21.00;;;;;9.11;100.00;98339.11;112704;239;163030;-55
2024/02/12 00:57:24;;;;;;;;;34.00;27.00;;;;;9.12;100.00;98341.15;113148;241;40832;-56
2024/02/12 01:00:04;;;;;;;;;26.25;22.00;;;;;9.14;100.00;98342.50;112829;239;161807;-56
2024/02/12 01:02:45;;;;;;;;;26.25;20.75;;;;;9.15;100.00;98340.36;112989;240;39633;-53
2024/02/12 01:05:22;;;;;;;;;31.75;23.00;;;;;9.14;100.00;98342.52;112965;239;162056;-53
2024/02/12 01:08:06;;;;;;;;;26.50;21.50;;;;;9.15;100.00;98338.14;112937;241;39249;-56
2024/02/12 01:10:46;;;;;;;;;28.33;22.67;;;;;9.11;100.00;98340.84;113036;241;39686;-56
2024/02/12 01:13:25;;;;;;;;;38.00;26.67;;;;;9.10;100.00;98341.48;112860;240;40661;-55
2024/02/12 01:16:05;;;;;;;;;25.50;18.50;;;;;9.11;100.00;98341.89;113101;241;40407;-52
2024/02/12 01:18:43;;;;;;;;;31.00;23.00;;;;;9.12;100.00;98339.85;112716;239;162247;-52
2024/02/12 01:21:27;;;;;;;;;20.00;15.00;;;;;9.13;100.00;98337.39;112855;241;40920;-52
2024/02/12 01:24:02;;;;;;;;;24.00;17.00;;;;;9.09;100.00;98338.31;112722;241;162172;-52
2024/02/12 01:26:41;;;;;;;;;28.00;22.00;;;;;9.09;100.00;98340.41;112960;241;39509;-52
2024/02/12 01:29:24;;;;;;;;;22.75;18.00;;;;;9.08;100.00;98339.70;112856;239;162012;-51
2024/02/12 01:32:00;;;;;;;;;36.50;26.00;;;;;9.09;100.00;98341.13;112915;241;39140;-55
2024/02/12 01:34:44;;;;;;;;;29.50;22.25;;;;;9.12;100.00;98341.30;112990;240;39453;-56
2024/02/12 01:37:29;;;;;;;;;26.00;20.25;;;;;9.09;100.00;98341.13;112822;241;41725;-52
2024/02/12 01:40:08;;;;;;;;;26.25;21.00;;;;;9.09;100.00;98341.84;112877;241;41500;-53
2024/02/12 01:42:51;;;;;;;;;23.50;17.50;;;;;9.12;100.00;98345.13;112739;239;161867;-53
2024/02/12 01:45:33;;;;;;;;;33.00;24.00;;;;;9.10;100.00;98343.95;113028;240;40289;-53
2024/02/12 01:48:25;;;;;;;;;32.00;24.00;;;;;9.11;100.00;98343.59;112665;239;161764;-52
2024/02/12 01:51:06;;;;;;;;;21.00;17.50;;;;;9.14;100.00;98343.14;112830;242;39296;-53
2024/02/12 01:53:44;;;;;;;;;29.00;22.50;;;;;9.13;100.00;98341.39;112715;239;161977;-52
2024/02/12 01:56:23;;;;;;;;;25.25;20.50;;;;;9.09;100.00;98344.85;112834;241;39439;-57
2024/02/12 01:59:06;;;;;;;;;37.50;27.00;;;;;9.08;100.00;98342.88;112746;239;162190;-56
2024/02/12 02:01:52;;;;;;;;;24.00;17.25;;;;;9.08;100.00;98340.12;112827;242;39843;-56
2024/02/12 02:04:32;;;;;;;;;27.25;18.75;;;;;9.12;100.00;98341.74;112816;242;40106;-57
2024/02/12 02:07:20;;;;;;;;;23.00;17.67;;;;;9.10;100.00;98339.31;112729;239;161948;-56
2024/02/12 02:09:56;;;;;;;;;31.00;23.25;;;;;9.11;100.00;98340.52;112883;241;39383;-56
2024/02/12 02:12:36;;;;;;;;;25.33;19.00;;;;;9.11;100.00;98341.77;112765;239;162032;-56
2024/02/12 02:15:14;;;;;;;;;25.00;19.00;;;;;9.10;100.00;98342.18;112831;242;39010;-57
2024/02/12 02:17:50;;;;;;;;;30.00;23.00;;;;;9.08;100.00;98341.35;112768;239;161863;-56
2024/02/12 02:20:30;;;;;;;;;31.00;24.00;;;;;9.06;100.00;98342.92;112851;241;40979;-56
2024/02/12 02:23:06;;;;;;;;;28.00;21.00;;;;;9.09;100.00;98345.11;112745;239;162253;-56
2024/02/12 02:25:48;;;;;;;;;26.00;20.00;;;;;9.09;100.00;98347.31;112838;241;40022;-56
2024/02/12 02:28:29;;;;;;;;;34.00;25.00;;;;;9.07;100.00;98346.66;112855;242;39448;-56
2024/02/12 02:31:08;;;;;;;;;32.00;23.00;;;;;9.05;100.00;98348.66;112713;239;161803;-53
2024/02/12 02:33:42;;;;;;;;;32.67;25.00;;;;;9.04;100.00;98349.45;112859;241;39971;-52
2024/02/12 02:36:22;;;;;;;;;27.00;22.00;;;;;9.02;100.00;98347.73;112735;239;161861;-55
2024/02/12 02:39:09;;;;;;;;;25.00;19.00;;;;;9.06;100.00;98349.12;112816;242;40543;-55
2024/02/12 02:41:52;;;;;;;;;26.00;19.25;;;;;9.04;100.00;98347.14;112706;240;161798;-52
2024/02/12 02:44:35;;;;;;;;;21.50;15.50;;;;;9.06;100.00;98349.39;112817;241;39433;-52
2024/02/12 02:47:14;;;;;;;;;30.25;23.00;;;;;9.06;100.00;98351.33;112772;239;162017;-56
2024/02/12 02:49:53;;;;;;;;;28.50;18.75;;;;;9.05;100.00;98349.48;112853;241;39542;-56
2024/02/12 02:52:33;;;;;;;;;26.00;20.00;;;;;9.07;100.00;98348.61;113003;241;40738;-51
2024/02/12 02:55:11;;;;;;;;;32.33;24.33;;;;;9.05;100.00;98349.85;112686;239;161773;-52
2024/02/12 02:57:53;;;;;;;;;30.50;23.00;;;;;9.03;100.00;98353.95;112992;241;41005;-56
2024/02/12 03:00:33;;;;;;;;;26.50;21.25;;;;;9.05;100.00;98354.98;112711;240;161764;-55
2024/02/12 03:03:08;;;;;;;;;22.00;16.50;;;;;9.04;100.00;98355.70;113052;241;39184;-57
2024/02/12 03:05:46;;;;;;;;;23.00;18.00;;;;;9.04;100.00;98353.55;112870;239;161936;-57
2024/02/12 03:08:22;;;;;;;;;23.00;17.00;;;;;9.00;100.00;98356.23;112899;240;39743;-55
2024/02/12 03:11:04;;;;;;;;;28.00;20.67;;;;;9.02;100.00;98357.94;112854;239;162278;-53
2024/02/12 03:13:45;;;;;;;;;27.00;19.00;;;;;9.05;100.00;98361.58;112861;241;39305;-53
2024/02/12 03:16:23;;;;;;;;;36.75;27.75;;;;;9.02;100.00;98363.98;113046;241;39877;-52
2024/02/12 03:19:02;;;;;;;;;25.25;20.00;;;;;9.00;100.00;98362.73;112751;239;162726;-52
2024/02/12 03:21:44;;;;;;;;;28.50;21.25;;;;;9.04;100.00;98365.08;112978;240;39389;-55
2024/02/12 03:24:19;;;;;;;;;24.50;19.00;;;;;9.07;100.00;98367.02;112761;239;163146;-55
2024/02/12 03:27:00;;;;;;;;;17.25;13.75;;;;;9.07;100.00;98370.95;112960;241;39786;-55
2024/02/12 03:29:42;;;;;;;;;34.00;23.25;;;;;9.09;100.00;98370.48;112824;239;161875;-55
2024/02/12 03:32:21;;;;;;;;;30.00;23.00;;;;;9.08;100.00;98372.23;112869;241;39193;-56
2024/02/12 03:35:01;;;;;;;;;31.33;25.00;;;;;9.08;100.00;98374.71;112765;239;162054;-56
2024/02/12 03:37:40;;;;;;;;;32.33;26.00;;;;;9.06;100.00;98378.05;112816;241;40152;-52
2024/02/12 03:40:17;;;;;;;;;25.75;17.75;;;;;9.05;100.00;98379.42;112959;241;39594;-53
2024/02/12 03:42:56;;;;;;;;;26.00;20.75;;;;;9.05;100.00;98381.73;112717;240;161685;-56
2024/02/12 03:45:35;;;;;;;;;38.00;25.00;;;;;9.07;100.00;98385.13;112960;240;41215;-56
2024/02/12 03:59:50;;;;;;;;;27.00;22.00;;;;;9.05;100.00;98386.31;112753;239;161989;-51
2024/02/12 03:59:53;;;;;;;;;35.00;25.50;;;;;8.94;100.00;98389.95;112760;239;161960;-56
2024/02/12 04:02:30;;;;;;;;;25.33;17.67;;;;;8.96;100.00;98390.96;112826;240;39906;-53
2024/02/12 04:05:07;;;;;;;;;24.00;19.00;;;;;8.91;100.00;98390.20;112750;239;161841;-53
2024/02/12 04:07:45;;;;;;;;;27.00;17.25;;;;;8.92;100.00;98389.69;112833;241;40107;-53
2024/02/12 04:10:27;;;;;;;;;35.33;26.00;;;;;8.99;100.00;98395.96;112863;241;39876;-53
2024/02/12 04:13:11;;;;;;;;;39.00;27.00;;;;;8.99;100.00;98394.35;112214;239;161307;-53
2024/02/12 04:15:55;;;;;;;;;27.00;20.00;;;;;9.01;100.00;98399.67;112838;241;41014;-53
2024/02/12 04:18:31;;;;;;;;;32.00;23.00;;;;;8.99;100.00;98397.79;112695;239;161510;-52
2024/02/12 04:21:16;;;;;;;;;25.00;18.25;;;;;9.03;100.00;98395.59;112872;240;40605;-56
2024/02/12 04:23:54;;;;;;;;;24.50;19.25;;;;;9.05;100.00;98400.70;112733;239;161918;-56
2024/02/12 04:26:30;;;;;;;;;29.00;21.00;;;;;9.03;100.00;98397.95;113032;241;39497;-56
2024/02/12 04:29:14;;;;;;;;;35.00;26.00;;;;;9.04;100.00;98396.84;112888;239;162289;-56
2024/02/12 04:31:58;;;;;;;;;27.50;20.00;;;;;9.04;100.00;98398.52;112839;241;39510;-55
2024/02/12 04:34:34;;;;;;;;;31.00;23.00;;;;;9.08;100.00;98395.30;112873;241;39461;-55
2024/02/12 04:37:11;;;;;;;;;31.00;22.00;;;;;9.10;100.00;98396.67;112719;239;161978;-52
2024/02/12 04:39:46;;;;;;;;;32.00;23.00;;;;;9.12;100.00;98401.64;112882;241;40198;-52
2024/02/12 04:42:26;;;;;;;;;32.00;24.00;;;;;9.10;100.00;98403.84;112797;240;161992;-55
2024/02/12 04:45:10;;;;;;;;;34.00;23.00;;;;;9.06;100.00;98398.40;112898;242;39319;-55
2024/02/12 04:47:58;;;;;;;;;32.00;22.75;;;;;9.02;100.00;98402.14;112805;240;162218;-53
2024/02/12 04:50:41;;;;;;;;;32.50;24.00;;;;;8.97;100.00;98401.71;112900;241;39617;-53
2024/02/12 04:53:19;;;;;;;;;31.00;21.00;;;;;9.00;100.00;98404.53;112688;241;162213;-53
2024/02/12 04:56:00;;;;;;;;;21.50;16.00;;;;;8.97;100.00;98407.05;112831;242;39952;-54
2024/02/12 04:58:40;;;;;;;;;28.00;22.00;;;;;9.01;100.00;98405.21;112821;242;39701;-53
2024/02/12 05:01:14;;;;;;;;;33.00;25.00;;;;;9.01;100.00;98409.23;112820;240;161737;-55
2024/02/12 05:03:59;;;;;;;;;25.67;17.33;;;;;9.02;100.00;98409.61;112816;241;40633;-55
2024/02/12 05:06:36;;;;;;;;;24.00;18.50;;;;;8.98;100.00;98408.54;112715;241;161393;-56
2024/02/12 05:09:15;;;;;;;;;22.00;17.33;;;;;8.99;100.00;98409.19;112760;242;39798;-56
2024/02/12 05:11:49;;;;;;;;;22.25;16.75;;;;;9.00;100.00;98410.84;112762;242;163326;-55
2024/02/12 05:14:27;;;;;;;;;26.00;20.00;;;;;8.97;100.00;98413.98;112886;241;40084;-55
2024/02/12 05:17:04;;;;;;;;;29.25;21.75;;;;;8.94;100.00;98419.08;112759;241;162238;-56
2024/02/12 05:22:37;;;;;;;;;28.00;21.00;;;;;8.95;100.00;98423.36;112850;242;40762;-52
2024/02/12 05:25:19;;;;;;;;;24.25;16.75;;;;;8.95;100.00;98423.14;112668;240;162377;-52
2024/02/12 05:27:56;;;;;;;;;20.25;16.00;;;;;8.98;100.00;98426.73;112868;241;40186;-53
2024/02/12 05:30:33;;;;;;;;;21.00;16.33;;;;;8.95;100.00;98428.42;112657;240;163295;-53
2024/02/12 05:33:09;;;;;;;;;27.25;20.00;;;;;8.91;100.00;98426.94;112872;242;39598;-52
2024/02/12 05:35:48;;;;;;;;;20.00;15.33;;;;;8.92;100.00;98428.96;112736;240;161766;-52
2024/02/12 05:38:31;;;;;;;;;21.00;15.00;;;;;8.95;100.00;98432.78;112876;241;40897;-52
2024/02/12 05:41:07;;;;;;;;;17.50;13.00;;;;;8.90;100.00;98430.18;112769;241;161944;-54
2024/02/12 05:43:42;;;;;;;;;19.50;15.00;;;;;8.90;100.00;98436.39;112737;242;39420;-54
2024/02/12 05:46:21;;;;;;;;;26.00;19.00;;;;;8.88;100.00;98438.41;112840;242;39710;-54
2024/02/12 05:49:00;;;;;;;;;21.00;15.00;;;;;8.82;100.00;98439.06;113018;241;161343;-54
2024/02/12 05:51:43;;;;;;;;;24.00;19.00;;;;;8.81;100.00;98441.84;112829;241;39817;-54
2024/02/12 05:54:19;;;;;;;;;23.50;18.00;;;;;8.84;100.00;98447.77;112677;241;163381;-54
2024/02/12 05:56:55;;;;;;;;;13.50;11.00;;;;;8.85;100.00;98449.25;112816;242;40188;-53
2024/02/12 05:59:35;;;;;;;;;19.25;14.25;;;;;8.81;100.00;98451.54;112710;240;162402;-53
2024/02/12 06:02:19;;;;;;;;;14.50;10.00;;;;;8.79;100.00;98454.91;112882;241;39363;-56
2024/02/12 06:04:59;;;;;;;;;19.00;13.67;;;;;8.75;100.00;98454.46;112832;241;41404;-57
2024/02/12 06:07:33;;;;;;;;;17.00;11.00;;;;;8.75;100.00;98456.95;112785;241;39408;-56
2024/02/12 06:10:11;;;;;;;;;16.75;12.75;;;;;8.76;100.00;98461.82;112834;241;39782;-56
2024/02/12 06:12:55;;;;;;;;;16.00;11.00;;;;;8.73;100.00;98463.61;112724;241;163143;-56
2024/02/12 06:15:34;;;;;;;;;18.00;15.00;;;;;8.75;100.00;98466.31;112834;242;39969;-56
2024/02/12 06:18:11;;;;;;;;;15.50;12.00;;;;;8.78;100.00;98468.02;112706;240;162214;-55
2024/02/12 06:20:50;;;;;;;;;13.00;9.33;;;;;8.79;100.00;98467.91;112867;241;39450;-55
2024/02/12 06:23:31;;;;;;;;;19.50;15.00;;;;;8.82;100.00;98469.91;112684;241;161644;-56
2024/02/12 06:26:10;;;;;;;;;13.67;10.33;;;;;8.82;100.00;98469.54;112839;242;40545;-56
2024/02/12 06:28:46;;;;;;;;;14.25;9.25;;;;;8.82;100.00;98470.77;112862;242;39536;-56
2024/02/12 06:31:22;;;;;;;;;17.00;12.00;;;;;8.83;100.00;98472.31;112807;240;161395;-54
2024/02/12 06:34:06;;;;;;;;;14.00;10.00;;;;;8.83;100.00;98475.98;112825;241;40275;-54
2024/02/12 06:36:46;;;;;;;;;11.25;9.00;;;;;8.88;100.00;98474.57;112666;241;161899;-56
2024/02/12 06:39:21;;;;;;;;;12.00;9.00;;;;;8.94;100.00;98478.53;112787;242;39765;-55
2024/02/12 06:41:58;;;;;;;;;12.50;9.00;;;;;8.95;100.00;98483.10;112756;240;161331;-53
2024/02/12 06:44:43;;;;;;;;;16.00;12.00;;;;;9.00;100.00;98482.88;112850;241;39374;-52
2024/02/12 06:47:30;;;;;;;;;8.67;6.33;;;;;9.07;100.00;98485.61;112759;241;161936;-56
2024/02/12 06:50:07;;;;;;;;;13.00;10.00;;;;;9.13;100.00;98483.83;112790;242;40943;-55
2024/02/12 06:52:45;;;;;;;;;12.00;10.00;;;;;9.10;100.00;98487.19;112881;242;41383;-55
2024/02/12 06:55:31;;;;;;;;;13.00;10.00;;;;;9.15;100.00;98485.54;112714;240;162101;-55
2024/02/12 06:58:11;;;;;;;;;12.25;9.00;;;;;9.15;100.00;98485.13;112919;241;40324;-53
2024/02/12 07:00:54;;;;;;;;;11.00;8.00;;;;;9.17;100.00;98482.00;112692;241;161583;-52
2024/02/12 07:03:35;;;;;;;;;13.67;9.67;;;;;9.21;100.00;98485.77;112845;242;40413;-57
2024/02/12 07:06:12;;;;;;;;;10.00;7.50;;;;;9.23;100.00;98489.50;112741;240;161509;-54
2024/02/12 07:08:51;;;;;;;;;13.00;9.75;;;;;9.22;100.00;98485.73;112807;241;39710;-54
2024/02/12 07:11:28;;;;;;;;;9.00;7.00;;;;;9.20;100.00;98491.29;112758;241;162001;-56
2024/02/12 07:14:08;;;;;;;;;13.00;10.00;;;;;9.26;100.00;98488.60;112874;242;40854;-56
2024/02/12 07:16:50;;;;;;;;;8.25;7.00;;;;;9.27;100.00;98497.08;112861;242;40008;-56
2024/02/12 07:19:32;;;;;;;;;9.00;6.67;;;;;9.31;100.00;98495.86;112847;240;162286;-56
2024/02/12 07:22:24;;;;;;;;;11.25;9.00;;;;;9.35;100.00;98502.02;112891;241;41011;-53
2024/02/12 07:25:05;;;;;;;;;8.00;7.00;;;;;9.30;100.00;98501.52;112678;241;161611;-53
2024/02/12 07:27:44;;;;;;;;;10.25;7.00;;;;;9.32;100.00;98505.27;112886;242;40739;-53
2024/02/12 07:30:22;;;;;;;;;8.00;6.00;;;;;9.25;100.00;98504.90;112724;240;161595;-53
2024/02/12 07:33:03;;;;;;;;;7.00;6.00;;;;;9.22;100.00;98506.77;112880;241;39581;-56
2024/02/12 07:35:49;;;;;;;;;13.00;10.00;;;;;9.17;100.00;98514.00;112644;242;162107;-57
2024/02/12 07:38:23;;;;;;;;;9.00;7.25;;;;;9.12;100.00;98514.89;112775;242;39974;-56
2024/02/12 07:41:04;;;;;;;;;6.00;5.00;;;;;9.18;100.00;98515.42;112851;242;39728;-56
2024/02/12 07:43:45;;;;;;;;;12.00;9.00;;;;;9.19;100.00;98514.96;112901;242;39478;-56
2024/02/12 07:46:26;;;;;;;;;8.00;6.75;;;;;9.17;100.00;98520.99;112773;242;39916;-54
2024/02/12 07:49:06;;;;;;;;;9.00;7.00;;;;;9.15;100.00;98523.14;112808;240;161457;-54
2024/02/12 07:51:45;;;;;;;;;8.00;7.00;;;;;9.16;100.00;98526.64;112872;241;40231;-56
2024/02/12 07:54:24;;;;;;;;;6.50;5.00;;;;;9.15;100.00;98530.10;112709;241;161808;-56
2024/02/12 07:57:05;;;;;;;;;9.00;6.00;;;;;9.10;100.00;98534.51;112827;242;40829;-54
2024/02/12 07:59:43;;;;;;;;;6.00;5.00;;;;;9.15;100.00;98530.27;112709;240;162512;-54
2024/02/12 08:02:24;;;;;;;;;6.50;5.50;;;;;9.11;100.00;98536.41;112854;241;39640;-55
2024/02/12 08:05:04;;;;;;;;;8.00;7.00;;;;;9.15;100.00;98538.23;112819;241;39143;-56
2024/02/12 08:07:44;;;;;;;;;10.00;8.00;;;;;9.15;100.00;98541.95;112806;242;39722;-56
2024/02/12 08:10:18;;;;;;;;;9.00;7.00;;;;;9.19;100.00;98541.73;112844;242;40223;-53
2024/02/12 08:12:52;;;;;;;;;7.00;5.00;;;;;9.19;100.00;98542.35;112691;240;161454;-57
2024/02/12 08:15:32;;;;;;;;;8.00;7.00;;;;;9.27;100.00;98541.05;112818;241;40388;-57
2024/02/12 08:18:12;;;;;;;;;5.00;4.00;;;;;9.31;100.00;98546.52;112729;241;161549;-54
2024/02/12 08:20:50;;;;;;;;;7.25;6.00;;;;;9.33;100.00;98547.31;112829;242;39233;-54
2024/02/12 08:23:32;;;;;;;;;8.50;6.00;;;;;9.34;100.00;98548.75;112670;240;161843;-54
2024/02/12 08:26:09;;;;;;;;;6.33;5.00;;;;;9.34;100.00;98551.49;112808;241;40474;-56
2024/02/12 08:28:53;;;;;;;;;6.00;4.00;;;;;9.36;100.00;98549.73;112838;241;39949;-57
2024/02/12 08:31:36;;;;;;;;;7.00;6.00;;;;;9.37;100.00;98557.22;112659;241;161424;-53
2024/02/12 08:34:20;;;;;;;;;8.00;6.00;;;;;9.41;100.00;98559.05;112831;242;39798;-54
2024/02/12 08:37:00;;;;;;;;;9.00;6.50;;;;;9.40;100.00;98564.07;112904;240;161345;-54
2024/02/12 08:39:45;;;;;;;;;7.00;6.00;;;;;9.37;100.00;98568.30;112841;241;39179;-54
2024/02/12 08:42:21;;;;;;;;;6.50;5.00;;;;;9.32;100.00;98574.25;112717;240;161288;-54
2024/02/12 08:45:08;;;;;;;;;8.00;7.00;;;;;9.25;100.00;98573.51;112824;242;39516;-54
2024/02/12 08:47:52;;;;;;;;;5.00;4.50;;;;;9.26;100.00;98576.30;112787;240;163114;-56
2024/02/12 08:50:27;;;;;;;;;8.25;7.00;;;;;9.28;100.00;98578.23;112914;241;39893;-56
2024/02/12 08:53:05;;;;;;;;;9.00;7.00;;;;;9.24;100.00;98582.70;112886;241;40239;-56
2024/02/12 08:55:43;;;;;;;;;8.00;7.00;;;;;9.30;100.00;98585.09;112530;242;39684;-61
2024/02/12 08:58:18;;;;;;;;;11.00;9.00;;;;;9.33;100.00;98590.56;112886;242;40033;-56
2024/02/12 09:01:01;;;;;;;;;7.00;6.00;;;;;9.38;100.00;98593.45;112893;240;161541;-54
2024/02/12 09:03:42;;;;;;;;;9.00;6.00;;;;;9.39;100.00;98594.88;112852;241;39459;-53
2024/02/12 09:06:24;;;;;;;;;7.00;6.00;;;;;9.42;100.00;98595.64;112714;241;161697;-55
2024/02/12 09:09:04;;;;;;;;;10.75;8.00;;;;;9.41;100.00;98602.73;112815;242;40831;-55
2024/02/12 09:11:44;;;;;;;;;10.00;8.00;;;;;9.37;100.00;98603.94;112739;240;161817;-53
2024/02/12 09:14:22;;;;;;;;;10.75;7.75;;;;;9.42;100.00;98607.10;112947;241;39287;-53
2024/02/12 09:17:01;;;;;;;;;8.00;7.00;;;;;9.43;100.00;98608.73;112832;241;39111;-55
2024/02/12 09:19:39;;;;;;;;;6.00;6.00;;;;;9.40;100.00;98613.48;112704;241;161439;-55
2024/02/12 09:22:22;;;;;;;;;8.00;7.00;;;;;9.42;100.00;98617.39;112870;242;39957;-55
2024/02/12 09:25:00;;;;;;;;;8.00;6.00;;;;;9.51;100.00;98619.11;112873;240;162459;-56
2024/02/12 09:27:45;;;;;;;;;4.75;4.00;;;;;9.57;100.00;98619.42;112894;241;40734;-53
2024/02/12 09:30:20;;;;;;;;;7.50;7.00;;;;;9.61;100.00;98621.45;112715;241;161250;-54
2024/02/12 09:32:59;;;;;;;;;9.75;8.00;;;;;9.73;100.00;98616.80;112510;242;40679;-57
2024/02/12 09:35:37;;;;;;;;;9.00;8.00;;;;;9.79;100.00;98624.27;112754;240;161613;-57
2024/02/12 09:38:15;;;;;;;;;7.00;6.25;;;;;9.83;100.00;98626.59;113034;241;39670;-56
2024/02/12 09:40:57;;;;;;;;;10.00;8.00;;;;;9.82;100.00;98625.90;112845;241;39762;-56
2024/02/12 09:43:36;;;;;;;;;5.75;4.75;;;;;9.83;100.00;98628.59;112669;241;163794;-57
2024/02/12 09:46:19;;;;;;;;;7.00;6.00;;;;;9.84;100.00;98629.85;112837;242;39326;-57
2024/02/12 09:48:57;;;;;;;;;9.00;7.00;;;;;9.88;100.00;98637.11;112782;242;161273;-57
2024/02/12 09:51:37;;;;;;;;;11.00;9.00;;;;;9.86;100.00;98634.77;112877;241;39280;-56
2024/02/12 09:54:22;;;;;;;;;8.50;7.00;;;;;9.87;100.00;98639.65;112648;241;161575;-56
2024/02/12 09:57:06;;;;;;;;;14.00;10.00;;;;;9.94;100.00;98644.36;112826;242;40662;-57
2024/02/12 09:59:45;;;;;;;;;10.50;9.00;;;;;9.93;100.00;98644.84;112753;240;162063;-57
2024/02/12 10:02:21;;;;;;;;;7.75;6.00;;;;;9.89;100.00;98643.98;112917;241;41037;-54
2024/02/12 10:04:56;;;;;;;;;9.00;8.00;;;;;9.94;100.00;98645.89;112831;241;39474;-54
2024/02/12 10:07:39;;;;;;;;;8.00;7.00;;;;;9.92;100.00;98650.91;113181;241;160820;-54
2024/02/12 10:10:19;;;;;;;;;7.67;6.00;;;;;9.91;100.00;98648.14;112846;241;40036;-54
2024/02/12 10:12:58;;;;;;;;;8.00;5.00;;;;;9.96;100.00;98647.99;112746;241;161414;-56
2024/02/12 10:15:37;;;;;;;;;10.00;9.00;;;;;9.92;100.00;98654.52;112591;242;40267;-56
2024/02/12 10:18:16;;;;;;;;;6.00;5.00;;;;;9.83;100.00;98656.23;112709;241;162798;-54
2024/02/12 10:20:57;;;;;;;;;10.00;8.00;;;;;9.79;100.00;98654.64;112868;242;39267;-55
2024/02/12 10:23:44;;;;;;;;;8.25;7.00;;;;;9.86;100.00;98650.83;112736;240;161650;-57
2024/02/12 10:26:28;;;;;;;;;9.00;7.00;;;;;9.87;100.00;98648.61;112861;242;40162;-55
2024/02/12 10:29:13;;;;;;;;;5.50;5.00;;;;;9.93;100.00;98654.22;112830;242;39779;-55
2024/02/12 10:31:54;;;;;;;;;7.00;5.50;;;;;9.92;100.00;98653.06;112554;242;38941;-53
2024/02/12 10:34:44;;;;;;;;;6.00;6.00;;;;;9.98;100.00;98654.73;112833;242;39257;-53
2024/02/12 10:37:27;;;;;;;;;7.00;6.00;;;;;10.04;100.00;98656.90;112713;241;161474;-54
2024/02/12 10:40:13;;;;;;;;;6.00;5.00;;;;;10.06;100.00;98656.48;112844;242;40561;-54
2024/02/12 10:42:53;;;;;;;;;10.00;8.00;;;;;10.07;100.00;98654.50;112746;240;161466;-57
2024/02/12 10:45:34;;;;;;;;;8.00;6.00;;;;;10.08;100.00;98657.07;112839;241;40791;-56
2024/02/12 10:48:12;;;;;;;;;8.00;6.00;;;;;10.16;100.00;98660.38;112738;241;161201;-54
2024/02/12 10:50:56;;;;;;;;;7.75;7.00;;;;;10.17;100.00;98660.80;112813;242;40110;-54
2024/02/12 10:53:40;;;;;;;;;9.50;8.00;;;;;10.15;100.00;98663.58;112718;242;161713;-54
2024/02/12 10:56:19;;;;;;;;;7.50;6.25;;;;;10.14;100.00;98666.15;112893;241;39639;-55
2024/02/12 10:59:19;;;;;;;;;10.25;9.00;;;;;10.23;100.00;98669.91;112835;241;39008;-55
2024/02/12 11:01:58;;;;;;;;;5.75;5.00;;;;;10.22;100.00;98671.49;112556;242;40966;-55
2024/02/12 11:04:42;;;;;;;;;8.00;7.00;;;;;10.19;100.00;98671.83;112875;242;40381;-58
2024/02/12 11:07:24;;;;;;;;;12.75;9.75;;;;;10.21;100.00;98676.54;112816;240;161459;-54
2024/02/12 11:10:10;;;;;;;;;7.00;5.25;;;;;10.24;100.00;98674.67;112854;241;38917;-56
2024/02/12 11:12:54;;;;;;;;;8.00;6.00;;;;;10.15;100.00;98679.19;112719;241;161830;-57
2024/02/12 11:15:31;;;;;;;;;8.00;6.00;;;;;10.19;100.00;98676.85;112848;242;40617;-58
2024/02/12 11:18:17;;;;;;;;;9.00;7.00;;;;;10.22;100.00;98678.02;112747;240;161507;-58
2024/02/12 11:21:02;;;;;;;;;8.00;5.50;;;;;10.18;100.00;98682.02;112902;241;39472;-56
2024/02/12 11:23:41;;;;;;;;;7.00;6.00;;;;;10.15;100.00;98680.81;112720;241;161721;-54
2024/02/12 11:26:21;;;;;;;;;9.00;8.00;;;;;10.11;100.00;98686.27;112824;242;40116;-56
2024/02/12 11:28:59;;;;;;;;;9.00;7.00;;;;;10.05;100.00;98686.77;112837;242;39581;-56
2024/02/12 11:31:38;;;;;;;;;8.00;6.75;;;;;9.93;100.00;98686.86;112755;240;162683;-57
2024/02/12 11:34:17;;;;;;;;;11.00;8.00;;;;;9.89;100.00;98689.86;112883;241;40021;-57
2024/02/12 11:37:07;;;;;;;;;9.00;8.00;;;;;9.87;100.00;98692.89;112699;241;160995;-54
2024/02/12 11:39:44;;;;;;;;;12.00;8.00;;;;;9.96;100.00;98688.00;112811;242;39973;-54
2024/02/12 11:42:27;;;;;;;;;8.00;7.00;;;;;10.02;100.00;98691.33;112675;240;161558;-57
2024/02/12 11:45:05;;;;;;;;;9.75;7.50;;;;;10.04;100.00;98688.76;112892;241;39231;-57
2024/02/12 11:47:44;;;;;;;;;7.00;6.00;;;;;10.04;100.00;98690.14;112674;241;161646;-53
2024/02/12 11:50:28;;;;;;;;;6.50;5.25;;;;;10.00;100.00;98690.52;112800;242;39513;-53
2024/02/12 11:53:07;;;;;;;;;11.75;10.25;;;;;9.88;100.00;98695.77;112592;242;39679;-53
2024/02/12 11:55:49;;;;;;;;;12.00;10.00;;;;;9.91;100.00;98693.00;112700;240;161609;-53
2024/02/12 11:58:29;;;;;;;;;11.00;9.00;;;;;9.89;100.00;98694.23;112868;241;41457;-52
2024/02/12 12:01:06;;;;;;;;;10.00;7.67;;;;;9.94;100.00;98698.32;112692;241;161698;-57
2024/02/12 12:03:46;;;;;;;;;8.50;6.25;;;;;10.01;100.00;98698.67;112893;242;39418;-56
2024/02/12 12:06:31;;;;;;;;;12.00;9.00;;;;;9.96;100.00;98702.23;112733;240;162035;-56
2024/02/12 12:09:12;;;;;;;;;9.50;7.00;;;;;9.97;100.00;98700.95;112827;241;39943;-57
2024/02/12 12:12:03;;;;;;;;;12.00;9.00;;;;;9.99;100.00;98701.70;112228;241;536988;-53
2024/02/12 12:14:47;;;;;;;;;12.00;10.00;;;;;9.96;100.00;98707.61;112778;241;40048;-55
2024/02/12 12:17:28;;;;;;;;;12.00;8.00;;;;;9.86;100.00;98707.15;112829;241;41300;-57
2024/02/12 12:20:09;;;;;;;;;11.00;9.00;;;;;9.91;100.00;98706.61;112462;242;39771;-57
2024/02/12 12:22:51;;;;;;;;;12.00;10.00;;;;;9.92;100.00;98712.08;112868;241;39788;-57
2024/02/12 12:25:34;;;;;;;;;12.75;10.00;;;;;9.89;100.00;98709.28;112683;241;161667;-57
2024/02/12 12:28:16;;;;;;;;;14.00;11.00;;;;;9.90;100.00;98712.02;112859;241;40351;-54
2024/02/12 12:30:54;;;;;;;;;9.00;6.00;;;;;9.94;100.00;98713.09;112796;240;161587;-54